createdAt,value
2018-04-28T00:00:28.128Z,50.00
2018-04-28T00:01:01.806Z,50.40
2018-04-28T00:01:33.520Z,50.40
2018-04-28T00:02:05.214Z,49.80
2018-04-28T00:02:36.960Z,50.20
2018-04-28T00:03:08.670Z,49.20
2018-04-28T00:03:40.338Z,49.30
2018-04-28T00:04:12.025Z,49.80
2018-04-28T00:04:43.718Z,50.20
2018-04-28T00:05:15.430Z,49.00
2018-04-28T00:05:47.142Z,49.20
2018-04-28T00:06:18.906Z,49.80
2018-04-28T00:06:50.702Z,50.60
2018-04-28T00:07:22.390Z,50.90
2018-04-28T00:07:54.100Z,49.50
2018-04-28T00:08:37.956Z,49.30
2018-04-28T00:09:09.632Z,49.60
2018-04-28T00:09:41.293Z,50.10
2018-04-28T00:10:13.867Z,50.00
2018-04-28T00:10:45.542Z,50.20
2018-04-28T00:11:17.238Z,50.50
2018-04-28T00:11:48.938Z,50.70
2018-04-28T00:12:20.648Z,50.60
2018-04-28T00:12:52.332Z,50.60
2018-04-28T00:13:24.013Z,50.00
2018-04-28T00:13:55.704Z,49.50
2018-04-28T00:14:27.472Z,49.10
2018-04-28T00:14:59.164Z,49.00
2018-04-28T00:15:30.848Z,48.60
2018-04-28T00:16:13.954Z,48.70
2018-04-28T00:16:52.748Z,48.60
2018-04-28T00:17:24.465Z,48.20
2018-04-28T00:17:56.160Z,47.80
2018-04-28T00:18:27.903Z,47.80
2018-04-28T00:19:04.118Z,47.70
2018-04-28T00:19:35.818Z,47.60
2018-04-28T00:20:07.530Z,46.50
2018-04-28T00:20:39.227Z,45.30
2018-04-28T00:21:10.913Z,45.40
2018-04-28T00:21:47.320Z,45.50
2018-04-28T00:22:22.861Z,45.60
2018-04-28T00:23:03.694Z,45.80
2018-04-28T00:23:50.305Z,46.00
2018-04-28T00:24:23.800Z,46.00
2018-04-28T00:25:01.612Z,45.40
2018-04-28T00:26:04.724Z,45.20
2018-04-28T00:26:37.364Z,44.30
2018-04-28T00:27:11.953Z,43.20
2018-04-28T00:28:00.818Z,42.20
2018-04-28T00:28:53.454Z,42.50
2018-04-28T00:29:25.140Z,42.10
2018-04-28T00:30:35.550Z,42.30
2018-04-28T00:31:09.234Z,42.80
2018-04-28T00:31:56.714Z,43.20
2018-04-28T00:32:28.408Z,43.20
2018-04-28T00:33:00.100Z,43.30
2018-04-28T00:33:31.810Z,43.00
2018-04-28T00:34:05.176Z,42.80
2018-04-28T00:34:41.550Z,42.50
2018-04-28T00:35:13.254Z,42.40
2018-04-28T00:35:44.942Z,42.50
2018-04-28T00:36:23.646Z,42.70
2018-04-28T00:37:09.696Z,42.90
2018-04-28T00:37:46.043Z,43.30
2018-04-28T00:38:17.776Z,43.40
2018-04-28T00:38:58.270Z,43.60
2018-04-28T00:39:33.716Z,43.70
2018-04-28T00:40:13.574Z,43.90
2018-04-28T00:40:45.258Z,44.10
2018-04-28T00:41:16.967Z,44.30
2018-04-28T00:41:48.644Z,44.20
2018-04-28T00:42:24.236Z,44.30
2018-04-28T00:42:58.580Z,44.40
2018-04-28T00:43:30.273Z,44.70
2018-04-28T00:45:19.048Z,44.10
2018-04-28T00:45:56.664Z,44.10
2018-04-28T00:46:28.366Z,44.30
2018-04-28T00:47:05.910Z,44.40
2018-04-28T00:47:38.571Z,44.30
2018-04-28T00:49:31.086Z,44.50
2018-04-28T00:50:10.944Z,44.40
2018-04-28T00:50:49.454Z,44.10
2018-04-28T00:51:27.896Z,42.90
2018-04-28T00:51:59.598Z,42.70
2018-04-28T00:52:31.333Z,42.70
2018-04-28T00:53:03.008Z,42.90
2018-04-28T00:53:34.708Z,43.00
2018-04-28T00:55:35.126Z,42.70
2018-04-28T00:56:06.812Z,42.50
2018-04-28T00:56:38.510Z,42.80
2018-04-28T00:58:18.064Z,43.60
2018-04-28T00:58:54.183Z,43.90
2018-04-28T00:59:30.346Z,44.30
2018-04-28T01:00:19.051Z,44.50
2018-04-28T01:02:13.168Z,44.90
2018-04-28T01:02:45.197Z,44.40
2018-04-28T01:03:17.218Z,44.70
2018-04-28T01:03:56.234Z,44.50
2018-04-28T01:04:45.082Z,44.70
2018-04-28T01:05:33.642Z,44.80
2018-04-28T01:06:05.701Z,44.50
2018-04-28T01:06:37.717Z,44.70
2018-04-28T01:07:18.684Z,44.60
2018-04-28T01:07:55.502Z,44.70
2018-04-28T01:08:29.506Z,44.80
2018-04-28T01:09:01.697Z,44.80
2018-04-28T01:09:33.770Z,44.80
2018-04-28T01:10:07.576Z,44.90
2018-04-28T01:10:39.633Z,44.90
2018-04-28T01:11:19.146Z,44.90
2018-04-28T01:11:51.202Z,44.80
2018-04-28T01:12:23.180Z,44.50
2018-04-28T01:12:54.906Z,44.60
2018-04-28T01:14:42.771Z,44.70
2018-04-28T01:15:14.483Z,44.70
2018-04-28T01:15:46.180Z,44.90
2018-04-28T01:16:19.276Z,45.00
2018-04-28T01:16:51.062Z,45.40
2018-04-28T01:17:23.018Z,45.70
2018-04-28T01:18:08.025Z,46.30
2018-04-28T01:19:15.924Z,46.50
2018-04-28T01:19:58.572Z,46.70
2018-04-28T01:20:30.270Z,47.20
2018-04-28T01:21:02.856Z,47.30
2018-04-28T01:21:34.562Z,47.40
2018-04-28T01:22:06.256Z,47.40
2018-04-28T01:22:52.302Z,47.50
2018-04-28T01:23:23.984Z,47.50
2018-04-28T01:23:57.773Z,47.40
2018-04-28T01:25:50.450Z,47.60
2018-04-28T01:27:58.098Z,47.30
2018-04-28T01:30:08.536Z,47.40
2018-04-28T01:30:45.964Z,47.40
2018-04-28T01:31:22.638Z,47.70
2018-04-28T01:31:54.345Z,47.50
2018-04-28T01:32:26.069Z,47.40
2018-04-28T01:33:16.692Z,47.30
2018-04-28T01:34:59.598Z,47.60
2018-04-28T01:35:34.183Z,47.80
2018-04-28T01:36:34.410Z,47.80
2018-04-28T01:38:36.928Z,48.40
2018-04-28T01:40:21.277Z,48.80
2018-04-28T01:40:52.986Z,48.90
2018-04-28T01:41:47.564Z,49.00
2018-04-28T01:43:16.846Z,48.90
2018-04-28T01:43:53.214Z,49.00
2018-04-28T01:44:32.799Z,48.90
2018-04-28T01:45:12.292Z,49.00
2018-04-28T01:45:45.795Z,49.00
2018-04-28T01:46:41.430Z,49.10
2018-04-28T01:47:22.322Z,49.20
2018-04-28T01:49:09.872Z,49.50
2018-04-28T01:49:48.524Z,49.40
2018-04-28T01:50:20.202Z,49.40
2018-04-28T01:51:03.832Z,49.40
2018-04-28T01:51:43.533Z,49.40
2018-04-28T01:52:15.221Z,49.40
2018-04-28T01:52:49.796Z,49.30
2018-04-28T01:53:23.252Z,49.20
2018-04-28T01:54:35.393Z,49.20
2018-04-28T01:55:11.841Z,49.00
2018-04-28T01:56:04.458Z,48.80
2018-04-28T01:56:39.090Z,48.70
2018-04-28T01:57:21.520Z,48.60
2018-04-28T01:57:59.890Z,48.60
2018-04-28T01:58:42.329Z,48.60
2018-04-28T01:59:14.021Z,48.60
2018-04-28T02:00:06.530Z,48.80
2018-04-28T02:00:43.083Z,49.00
2018-04-28T02:01:25.856Z,49.10
2018-04-28T02:02:09.432Z,49.00
2018-04-28T02:02:42.970Z,49.10
2018-04-28T02:03:24.766Z,49.00
2018-04-28T02:04:01.188Z,49.00
2018-04-28T02:04:45.168Z,48.90
2018-04-28T02:05:45.398Z,48.90
2018-04-28T02:06:19.946Z,48.90
2018-04-28T02:06:59.618Z,48.90
2018-04-28T02:07:34.883Z,49.10
2018-04-28T02:08:08.401Z,49.40
2018-04-28T02:08:40.080Z,49.70
2018-04-28T02:09:12.564Z,50.10
2018-04-28T02:09:45.069Z,50.40
2018-04-28T02:10:22.688Z,50.70
2018-04-28T02:10:58.128Z,51.00
2018-04-28T02:11:39.805Z,51.20
2018-04-28T02:12:13.420Z,51.20
2018-04-28T02:13:57.142Z,51.20
2018-04-28T02:14:35.754Z,51.20
2018-04-28T02:15:26.200Z,51.10
2018-04-28T02:15:58.702Z,51.00
2018-04-28T02:16:37.514Z,51.10
2018-04-28T02:17:10.091Z,51.30
2018-04-28T02:17:46.596Z,51.50
2018-04-28T02:19:43.706Z,51.40
2018-04-28T02:20:24.294Z,51.40
2018-04-28T02:21:01.878Z,51.20
2018-04-28T02:21:55.505Z,51.10
2018-04-28T02:23:44.365Z,50.90
2018-04-28T02:25:32.077Z,50.90
2018-04-28T02:26:09.420Z,51.00
2018-04-28T02:26:41.120Z,51.30
2018-04-28T02:27:14.502Z,51.40
2018-04-28T02:28:17.027Z,51.20
2018-04-28T02:30:03.002Z,51.80
2018-04-28T02:30:42.729Z,51.90
2018-04-28T02:32:30.971Z,52.00
2018-04-28T02:33:02.663Z,52.20
2018-04-28T02:33:34.377Z,52.30
2018-04-28T02:35:32.525Z,52.40
2018-04-28T02:36:22.317Z,52.40
2018-04-28T02:36:55.957Z,52.50
2018-04-28T02:37:43.660Z,52.70
2018-04-28T02:38:23.979Z,52.60
2018-04-28T02:38:58.622Z,52.60
2018-04-28T02:39:30.329Z,52.60
2018-04-28T02:40:15.231Z,52.70
2018-04-28T02:41:01.180Z,52.60
2018-04-28T02:41:56.599Z,52.50
2018-04-28T02:43:04.166Z,52.60
2018-04-28T02:43:57.458Z,52.70
2018-04-28T02:45:40.999Z,52.80
2018-04-28T02:46:59.889Z,52.90
2018-04-28T02:47:31.577Z,52.90
2018-04-28T02:48:07.179Z,52.90
2018-04-28T02:48:54.270Z,53.10
2018-04-28T02:49:33.122Z,53.30
2018-04-28T02:50:27.617Z,53.30
2018-04-28T02:51:07.110Z,53.30
2018-04-28T02:51:59.926Z,53.30
2018-04-28T02:52:43.879Z,53.30
2018-04-28T02:53:36.689Z,53.50
2018-04-28T02:54:11.152Z,53.30
2018-04-28T02:56:05.941Z,53.50
2018-04-28T02:56:42.463Z,53.60
2018-04-28T02:57:39.123Z,53.30
2018-04-28T02:59:07.920Z,53.00
2018-04-28T02:59:49.706Z,53.00
2018-04-28T03:00:22.218Z,53.20
2018-04-28T03:01:17.658Z,53.00
2018-04-28T03:03:09.533Z,53.00
2018-04-28T03:04:31.399Z,52.80
2018-04-28T03:05:10.079Z,52.60
2018-04-28T03:05:41.765Z,52.70
2018-04-28T03:06:14.471Z,52.70
2018-04-28T03:06:51.844Z,52.50
2018-04-28T03:07:37.732Z,52.60
2018-04-28T03:08:12.307Z,52.40
2018-04-28T03:08:43.891Z,52.30
2018-04-28T03:09:18.337Z,52.30
2018-04-28T03:09:57.611Z,52.20
2018-04-28T03:10:34.166Z,52.00
2018-04-28T03:11:05.766Z,51.70
2018-04-28T03:11:44.229Z,51.60
2018-04-28T03:12:18.891Z,51.30
2018-04-28T03:12:50.503Z,51.00
2018-04-28T03:13:25.757Z,50.90
2018-04-28T03:13:57.350Z,51.00
2018-04-28T03:14:28.944Z,51.00
2018-04-28T03:15:00.554Z,51.00
2018-04-28T03:15:32.138Z,51.10
2018-04-28T03:16:04.491Z,50.90
2018-04-28T03:16:36.082Z,50.90
2018-04-28T03:17:20.591Z,50.80
2018-04-28T03:17:52.173Z,50.70
2018-04-28T03:18:34.631Z,50.60
2018-04-28T03:19:08.930Z,50.50
2018-04-28T03:19:43.478Z,50.30
2018-04-28T03:20:19.014Z,50.30
2018-04-28T03:20:59.456Z,50.30
2018-04-28T03:21:32.059Z,50.40
2018-04-28T03:22:03.683Z,50.30
2018-04-28T03:22:36.138Z,50.20
2018-04-28T03:23:08.661Z,50.30
2018-04-28T03:23:41.198Z,50.10
2018-04-28T03:24:41.685Z,50.20
2018-04-28T03:25:14.108Z,50.00
2018-04-28T03:25:46.501Z,49.90
2018-04-28T03:26:19.934Z,49.90
2018-04-28T03:26:58.506Z,50.00
2018-04-28T03:28:45.924Z,50.60
2018-04-28T03:29:17.511Z,50.60
2018-04-28T03:30:04.837Z,50.60
2018-04-28T03:30:41.241Z,50.60
2018-04-28T03:31:26.843Z,50.50
2018-04-28T03:31:58.449Z,50.40
2018-04-28T03:32:36.851Z,50.50
2018-04-28T03:33:09.294Z,50.40
2018-04-28T03:33:44.661Z,50.50
2018-04-28T03:34:38.156Z,50.50
2018-04-28T03:35:16.608Z,50.40
2018-04-28T03:35:48.192Z,50.60
2018-04-28T03:36:19.766Z,50.60
2018-04-28T03:37:03.632Z,50.70
2018-04-28T03:37:35.232Z,50.80
2018-04-28T03:39:15.688Z,51.60
2018-04-28T03:39:56.801Z,51.10
2018-04-28T03:40:32.324Z,51.00
2018-04-28T03:41:25.786Z,51.10
2018-04-28T03:42:13.236Z,51.20
2018-04-28T03:44:11.299Z,51.70
2018-04-28T03:45:02.678Z,51.80
2018-04-28T03:45:35.946Z,51.90
2018-04-28T03:46:17.266Z,52.10
2018-04-28T03:46:52.638Z,52.20
2018-04-28T03:47:34.956Z,52.10
2018-04-28T03:49:27.492Z,52.30
2018-04-28T03:49:59.100Z,52.30
2018-04-28T03:50:32.418Z,52.70
2018-04-28T03:51:14.807Z,52.90
2018-04-28T03:51:58.186Z,53.00
2018-04-28T03:52:35.898Z,52.20
2018-04-28T03:54:25.433Z,52.50
2018-04-28T03:54:57.022Z,52.80
2018-04-28T03:55:28.626Z,53.30
2018-04-28T03:56:03.867Z,53.50
2018-04-28T03:56:36.346Z,53.70
2018-04-28T03:57:39.230Z,54.10
2018-04-28T03:58:29.384Z,54.50
2018-04-28T03:59:19.575Z,55.10
2018-04-28T04:00:09.717Z,55.00
2018-04-28T04:00:59.886Z,55.30
2018-04-28T04:01:49.872Z,55.50
2018-04-28T04:03:56.636Z,56.00
2018-04-28T04:04:43.925Z,56.40
2018-04-28T04:06:23.352Z,56.60
2018-04-28T04:08:10.117Z,57.30
2018-04-28T04:10:08.916Z,58.30
2018-04-28T04:12:05.552Z,58.60
2018-04-28T04:13:43.167Z,59.40
2018-04-28T04:14:48.662Z,59.60
2018-04-28T04:17:21.449Z,60.60
2018-04-28T04:19:45.708Z,60.70
2018-04-28T04:20:26.174Z,60.50
2018-04-28T04:21:24.860Z,60.30
2018-04-28T04:23:13.217Z,59.60
2018-04-28T04:24:00.777Z,59.30
2018-04-28T04:24:37.247Z,58.80
2018-04-28T04:25:08.836Z,58.60
2018-04-28T04:25:43.427Z,58.20
2018-04-28T04:26:24.165Z,58.00
2018-04-28T04:27:06.698Z,57.90
2018-04-28T04:27:56.700Z,57.60
2018-04-28T04:28:32.191Z,57.20
2018-04-28T04:29:19.753Z,56.80
2018-04-28T04:29:54.208Z,56.80
2018-04-28T04:30:44.385Z,56.80
2018-04-28T04:31:22.689Z,56.40
2018-04-28T04:33:04.197Z,56.40
2018-04-28T04:33:54.305Z,56.40
2018-04-28T04:34:50.677Z,56.30
2018-04-28T04:35:45.707Z,56.20
2018-04-28T04:36:44.617Z,56.00
2018-04-28T04:37:17.990Z,55.20
2018-04-28T04:38:03.675Z,55.00
2018-04-28T04:38:37.040Z,55.10
2018-04-28T04:40:20.733Z,54.60
2018-04-28T04:41:17.242Z,54.30
2018-04-28T04:44:48.988Z,52.90
2018-04-28T04:46:29.007Z,53.70
2018-04-28T04:47:11.571Z,53.60
2018-04-28T04:47:44.116Z,53.60
2018-04-28T04:48:44.888Z,53.60
2018-04-28T04:50:29.683Z,52.90
2018-04-28T04:51:04.001Z,52.40
2018-04-28T04:52:00.209Z,52.60
2018-04-28T04:53:29.126Z,52.50
2018-04-28T04:54:29.566Z,52.20
2018-04-28T04:56:40.941Z,51.70
2018-04-28T04:58:31.254Z,51.50
2018-04-28T05:04:48.192Z,50.70
2018-04-28T05:05:31.790Z,50.60
2018-04-28T05:06:34.933Z,50.40
2018-04-28T05:08:18.735Z,50.60
2018-04-28T05:11:43.935Z,50.30
2018-04-28T05:12:45.389Z,50.10
2018-04-28T05:13:37.810Z,50.00
2018-04-28T05:14:28.899Z,50.00
2018-04-28T05:16:26.995Z,49.30
2018-04-28T05:17:14.284Z,48.90
2018-04-28T05:18:15.035Z,49.00
2018-04-28T05:18:58.580Z,48.80
2018-04-28T05:19:32.786Z,48.90
2018-04-28T05:20:33.496Z,48.30
2018-04-28T05:22:47.428Z,48.30
2018-04-28T05:26:42.700Z,48.60
2018-04-28T05:28:38.718Z,48.60
2018-04-28T05:29:39.243Z,48.50
2018-04-28T05:32:13.338Z,48.10
2018-04-28T05:34:07.084Z,48.60
2018-04-28T05:36:37.917Z,48.60
2018-04-28T05:38:58.584Z,47.80
2018-04-28T05:40:35.007Z,47.00
2018-04-28T05:42:47.016Z,46.00
2018-04-28T05:43:48.886Z,46.80
2018-04-28T05:46:01.395Z,47.80
2018-04-28T05:47:55.483Z,47.20
2018-04-28T05:50:15.216Z,47.70
2018-04-28T05:51:15.752Z,47.90
2018-04-28T05:52:06.364Z,47.80
2018-04-28T05:53:00.456Z,47.90
2018-04-28T05:55:19.594Z,48.10
2018-04-28T05:56:00.024Z,48.40
2018-04-28T05:56:50.246Z,48.10
2018-04-28T05:59:00.386Z,48.40
2018-04-28T05:59:52.392Z,48.60
2018-04-28T06:00:30.876Z,49.30
2018-04-28T06:01:11.405Z,49.80
2018-04-28T06:03:17.304Z,49.50
2018-04-28T06:04:58.260Z,49.40
2018-04-28T06:05:32.946Z,48.90
2018-04-28T06:07:50.566Z,48.40
2018-04-28T06:08:39.925Z,48.60
2018-04-28T06:09:25.812Z,47.60
2018-04-28T06:10:15.252Z,47.80
2018-04-28T06:10:58.658Z,48.30
2018-04-28T06:14:45.916Z,46.00
2018-04-28T06:18:10.803Z,43.60
2018-04-28T06:18:48.124Z,42.00
2018-04-28T06:20:46.494Z,42.40
2018-04-28T06:21:18.073Z,42.50
2018-04-28T06:21:49.665Z,42.30
2018-04-28T06:22:21.221Z,42.40
2018-04-28T06:22:52.780Z,42.90
2018-04-28T06:23:24.344Z,43.30
2018-04-28T06:23:55.898Z,43.00
2018-04-28T06:24:27.448Z,42.80
2018-04-28T06:24:58.998Z,42.90
2018-04-28T06:25:30.572Z,42.90
2018-04-28T06:26:02.243Z,42.80
2018-04-28T06:26:33.804Z,42.90
2018-04-28T06:27:05.374Z,42.90
2018-04-28T06:27:36.950Z,42.10
2018-04-28T06:28:08.526Z,42.30
2018-04-28T06:28:40.104Z,42.70
2018-04-28T06:29:11.698Z,43.20
2018-04-28T06:29:43.276Z,42.80
2018-04-28T06:30:14.936Z,43.40
2018-04-28T06:30:46.528Z,42.90
2018-04-28T06:31:18.116Z,43.30
2018-04-28T06:31:49.748Z,43.40
2018-04-28T06:32:21.326Z,43.50
2018-04-28T06:32:52.918Z,43.90
2018-04-28T06:33:24.510Z,44.40
2018-04-28T06:33:56.090Z,44.50
2018-04-28T06:34:27.680Z,44.70
2018-04-28T06:34:59.238Z,44.50
2018-04-28T06:35:30.827Z,44.00
2018-04-28T06:36:02.408Z,43.50
2018-04-28T06:36:33.984Z,43.30
2018-04-28T06:37:05.585Z,43.10
2018-04-28T06:37:37.189Z,43.20
2018-04-28T06:38:08.784Z,43.60
2018-04-28T06:38:40.374Z,43.30
2018-04-28T06:39:11.960Z,43.00
2018-04-28T06:39:43.551Z,43.40
2018-04-28T06:40:15.208Z,43.50
2018-04-28T06:40:46.722Z,43.20
2018-04-28T06:41:18.340Z,43.00
2018-04-28T06:41:49.886Z,42.60
2018-04-28T06:42:21.480Z,42.60
2018-04-28T06:42:53.045Z,42.80
2018-04-28T06:43:24.610Z,43.00
2018-04-28T06:43:56.184Z,42.90
2018-04-28T06:44:27.732Z,42.20
2018-04-28T06:44:59.310Z,42.10
2018-04-28T06:45:30.909Z,42.30
2018-04-28T06:46:02.489Z,42.70
2018-04-28T06:46:34.080Z,42.90
2018-04-28T06:47:05.668Z,43.20
2018-04-28T06:47:37.246Z,43.10
2018-04-28T06:48:08.825Z,42.90
2018-04-28T06:48:40.419Z,42.90
2018-04-28T06:49:12.035Z,42.70
2018-04-28T06:49:43.625Z,42.90
2018-04-28T06:50:15.203Z,42.70
2018-04-28T06:50:46.804Z,42.50
2018-04-28T06:51:18.348Z,42.70
2018-04-28T06:51:49.912Z,43.30
2018-04-28T06:52:21.492Z,43.50
2018-04-28T06:52:53.078Z,43.30
2018-04-28T06:53:24.644Z,43.40
2018-04-28T06:53:56.235Z,43.10
2018-04-28T06:54:27.812Z,43.20
2018-04-28T06:54:59.388Z,43.20
2018-04-28T06:55:30.971Z,43.60
2018-04-28T06:56:02.565Z,44.00
2018-04-28T06:56:34.166Z,44.10
2018-04-28T06:57:05.760Z,44.20
2018-04-28T06:57:37.344Z,42.40
2018-04-28T06:58:08.920Z,42.60
2018-04-28T06:58:40.488Z,41.70
2018-04-28T06:59:12.095Z,42.00
2018-04-28T06:59:43.708Z,42.00
2018-04-28T07:00:15.339Z,41.80
2018-04-28T07:00:46.942Z,41.40
2018-04-28T07:01:18.516Z,41.10
2018-04-28T07:01:50.104Z,40.40
2018-04-28T07:02:21.695Z,40.90
2018-04-28T07:02:53.262Z,41.80
2018-04-28T07:03:24.844Z,41.90
2018-04-28T07:03:56.419Z,39.90
2018-04-28T07:04:28.076Z,39.70
2018-04-28T07:04:59.632Z,40.00
2018-04-28T07:05:31.235Z,40.50
2018-04-28T07:06:02.855Z,40.60
2018-04-28T07:06:34.433Z,40.50
2018-04-28T07:07:06.028Z,40.60
2018-04-28T07:07:37.598Z,40.70
2018-04-28T07:08:09.200Z,40.40
2018-04-28T07:08:40.773Z,40.70
2018-04-28T07:09:12.354Z,40.60
2018-04-28T07:09:43.919Z,40.60
2018-04-28T07:10:15.497Z,40.30
2018-04-28T07:10:47.152Z,40.40
2018-04-28T07:11:18.689Z,40.50
2018-04-28T07:11:50.276Z,40.60
2018-04-28T07:12:21.861Z,41.20
2018-04-28T07:12:53.444Z,41.40
2018-04-28T07:13:25.044Z,41.90
2018-04-28T07:13:56.638Z,41.20
2018-04-28T07:14:28.235Z,41.10
2018-04-28T07:14:59.830Z,41.00
2018-04-28T07:15:31.416Z,41.50
2018-04-28T07:16:02.997Z,41.50
2018-04-28T07:16:34.595Z,40.20
2018-04-28T07:17:06.170Z,40.90
2018-04-28T07:17:37.743Z,41.10
2018-04-28T07:18:09.340Z,41.00
2018-04-28T07:18:40.902Z,41.20
2018-04-28T07:19:12.505Z,40.60
2018-04-28T07:19:44.104Z,41.00
2018-04-28T07:20:15.689Z,40.90
2018-04-28T07:20:47.278Z,40.30
2018-04-28T07:21:18.871Z,40.30
2018-04-28T07:21:50.436Z,40.60
2018-04-28T07:22:22.013Z,40.60
2018-04-28T07:22:53.605Z,41.30
2018-04-28T07:23:25.174Z,41.60
2018-04-28T07:23:56.735Z,41.80
2018-04-28T07:24:28.337Z,41.50
2018-04-28T07:24:59.920Z,41.50
2018-04-28T07:25:31.498Z,41.30
2018-04-28T07:26:03.110Z,41.20
2018-04-28T07:26:34.687Z,41.20
2018-04-28T07:27:06.261Z,41.50
2018-04-28T07:27:37.860Z,41.80
2018-04-28T07:28:09.441Z,41.30
2018-04-28T07:28:41.123Z,41.00
2018-04-28T07:29:12.636Z,41.20
2018-04-28T07:29:44.236Z,41.30
2018-04-28T07:30:15.834Z,41.60
2018-04-28T07:30:47.412Z,41.80
2018-04-28T07:31:18.995Z,42.10
2018-04-28T07:31:50.582Z,42.10
2018-04-28T07:32:22.147Z,42.20
2018-04-28T07:32:53.728Z,41.90
2018-04-28T07:33:25.334Z,41.70
2018-04-28T07:33:56.905Z,42.60
2018-04-28T07:34:28.491Z,43.10
2018-04-28T07:35:00.068Z,43.30
2018-04-28T07:35:31.645Z,43.30
2018-04-28T07:36:03.219Z,43.20
2018-04-28T07:36:34.789Z,42.30
2018-04-28T07:37:06.378Z,42.50
2018-04-28T07:37:37.968Z,42.90
2018-04-28T07:38:09.582Z,43.80
2018-04-28T07:38:41.157Z,44.30
2018-04-28T07:39:12.744Z,44.70
2018-04-28T07:39:44.310Z,45.30
2018-04-28T07:40:15.896Z,46.00
2018-04-28T07:40:47.482Z,46.40
2018-04-28T07:41:19.068Z,46.00
2018-04-28T07:41:50.670Z,46.70
2018-04-28T07:42:22.352Z,47.20
2018-04-28T07:42:53.869Z,47.20
2018-04-28T07:43:25.450Z,47.10
2018-04-28T07:43:57.036Z,47.30
2018-04-28T07:44:28.624Z,47.40
2018-04-28T07:45:00.196Z,47.80
2018-04-28T07:45:31.764Z,48.20
2018-04-28T07:46:03.344Z,48.00
2018-04-28T07:46:34.916Z,48.60
2018-04-28T07:47:06.494Z,48.70
2018-04-28T07:47:38.148Z,48.40
2018-04-28T07:48:09.664Z,49.20
2018-04-28T07:48:41.240Z,49.60
2018-04-28T07:49:12.810Z,49.70
2018-04-28T07:49:44.399Z,50.00
2018-04-28T07:50:15.984Z,50.00
2018-04-28T07:50:47.568Z,50.60
2018-04-28T07:51:19.172Z,51.30
2018-04-28T07:51:50.755Z,51.10
2018-04-28T07:52:22.292Z,49.70
2018-04-28T07:52:53.924Z,49.20
2018-04-28T07:53:25.470Z,48.30
2018-04-28T07:53:57.038Z,48.80
2018-04-28T07:54:28.606Z,48.90
2018-04-28T07:55:00.171Z,49.10
2018-04-28T07:55:31.740Z,49.00
2018-04-28T07:56:03.310Z,48.00
2018-04-28T07:56:34.892Z,47.70
2018-04-28T07:57:06.462Z,47.60
2018-04-28T07:57:38.039Z,48.40
2018-04-28T07:58:09.599Z,47.70
2018-04-28T07:58:41.178Z,47.60
2018-04-28T07:59:18.946Z,47.50
2018-04-28T07:59:50.482Z,48.40
2018-04-28T08:00:22.074Z,47.00
2018-04-28T08:00:53.614Z,47.20
2018-04-28T08:01:25.195Z,46.40
2018-04-28T08:01:56.778Z,45.80
2018-04-28T08:02:28.374Z,46.70
2018-04-28T08:02:59.951Z,45.50
2018-04-28T08:03:31.529Z,45.30
2018-04-28T08:04:03.122Z,45.00
2018-04-28T08:04:34.743Z,45.20
2018-04-28T08:05:06.322Z,43.80
2018-04-28T08:05:37.903Z,43.70
2018-04-28T08:06:09.499Z,43.50
2018-04-28T08:06:41.101Z,43.90
2018-04-28T08:07:12.656Z,43.80
2018-04-28T08:07:44.241Z,44.50
2018-04-28T08:08:15.828Z,44.90
2018-04-28T08:08:47.410Z,44.80
2018-04-28T08:09:18.998Z,43.80
2018-04-28T08:09:50.568Z,43.50
2018-04-28T08:10:22.194Z,43.60
2018-04-28T08:10:53.776Z,42.90
2018-04-28T08:11:25.346Z,42.10
2018-04-28T08:11:56.955Z,42.00
2018-04-28T08:12:28.566Z,41.30
2018-04-28T08:13:00.162Z,41.20
2018-04-28T08:13:31.738Z,41.30
2018-04-28T08:14:03.339Z,39.80
2018-04-28T08:14:34.953Z,38.70
2018-04-28T08:15:06.584Z,37.60
2018-04-28T08:15:38.167Z,37.30
2018-04-28T08:16:09.728Z,38.00
2018-04-28T08:16:41.303Z,36.90
2018-04-28T08:17:12.893Z,33.80
2018-04-28T08:17:44.472Z,33.90
2018-04-28T08:18:16.052Z,34.40
2018-04-28T08:18:47.640Z,34.00
2018-04-28T08:19:19.212Z,34.00
2018-04-28T08:19:50.796Z,32.70
2018-04-28T08:20:22.386Z,31.10
2018-04-28T08:20:53.988Z,31.60
2018-04-28T08:21:25.597Z,30.30
2018-04-28T08:21:57.200Z,30.10
2018-04-28T08:22:28.782Z,29.00
2018-04-28T08:23:00.390Z,28.70
2018-04-28T08:23:31.972Z,26.30
2018-04-28T08:24:03.587Z,25.30
2018-04-28T08:24:35.160Z,23.40
2018-04-28T08:25:06.743Z,23.50
2018-04-28T08:25:38.318Z,21.40
2018-04-28T08:26:09.908Z,22.60
2018-04-28T08:26:41.501Z,18.40
2018-04-28T08:27:13.102Z,21.10
2018-04-28T08:27:44.678Z,19.50
2018-04-28T08:28:22.280Z,17.80
2018-04-28T08:28:53.850Z,17.10
2018-04-28T08:29:25.452Z,18.30
2018-04-28T08:29:57.080Z,16.80
2018-04-28T08:30:28.686Z,19.00
2018-04-28T08:31:00.282Z,20.00
2018-04-28T08:31:31.854Z,17.50
2018-04-28T08:32:03.440Z,17.10
2018-04-28T08:32:35.041Z,15.30
2018-04-28T08:33:06.618Z,14.10
2018-04-28T08:33:38.196Z,13.20
2018-04-28T08:34:09.782Z,12.30
2018-04-28T08:34:41.388Z,12.70
2018-04-28T08:35:12.964Z,12.70
2018-04-28T08:35:44.536Z,14.10
2018-04-28T08:36:16.132Z,14.50
2018-04-28T08:36:47.807Z,14.90
2018-04-28T08:37:19.467Z,15.20
2018-04-28T08:37:50.948Z,16.60
2018-04-28T08:38:22.526Z,17.60
2018-04-28T08:38:54.147Z,17.30
2018-04-28T08:39:25.726Z,17.90
2018-04-28T08:39:57.298Z,15.10
2018-04-28T08:40:28.877Z,13.50
2018-04-28T08:41:00.462Z,15.40
2018-04-28T08:41:32.046Z,17.10
2018-04-28T08:42:03.640Z,18.00
2018-04-28T08:42:35.234Z,17.70
2018-04-28T08:43:06.820Z,18.50
2018-04-28T08:43:38.446Z,16.10
2018-04-28T08:44:10.048Z,17.50
2018-04-28T08:44:41.680Z,16.30
2018-04-28T08:45:13.278Z,13.20
2018-04-28T08:45:44.859Z,13.10
2018-04-28T08:46:16.431Z,13.40
2018-04-28T08:46:47.998Z,12.10
2018-04-28T08:47:19.552Z,14.30
2018-04-28T08:47:51.136Z,14.00
2018-04-28T08:48:22.726Z,12.90
2018-04-28T08:48:54.251Z,13.80
2018-04-28T08:49:25.828Z,15.20
2018-04-28T08:49:57.376Z,15.00
2018-04-28T08:50:28.940Z,16.10
2018-04-28T08:51:00.563Z,16.90
2018-04-28T08:51:32.091Z,14.30
2018-04-28T08:52:03.711Z,14.40
2018-04-28T08:52:35.284Z,13.50
2018-04-28T08:53:06.921Z,13.10
2018-04-28T08:53:38.488Z,12.90
2018-04-28T08:54:10.069Z,14.10
2018-04-28T08:54:41.654Z,14.70
2018-04-28T08:55:13.246Z,12.10
2018-04-28T08:55:44.841Z,10.90
2018-04-28T08:56:16.420Z,10.30
2018-04-28T08:56:48.006Z,9.20
2018-04-28T08:57:19.645Z,7.30
2018-04-28T08:57:51.243Z,7.90
2018-04-28T08:58:22.822Z,7.50
2018-04-28T08:58:54.385Z,5.80
2018-04-28T08:59:44.385Z,8.20
2018-04-28T09:00:28.134Z,10.00
2018-04-28T09:00:59.744Z,9.80
2018-04-28T09:01:31.305Z,8.00
2018-04-28T09:02:02.855Z,8.10
2018-04-28T09:02:34.436Z,6.40
2018-04-28T09:03:05.982Z,7.80
2018-04-28T09:03:37.554Z,5.70
2018-04-28T09:04:09.057Z,6.70
2018-04-28T09:04:40.592Z,6.30
2018-04-28T09:05:12.134Z,6.60
2018-04-28T09:05:43.668Z,6.00
2018-04-28T09:06:15.260Z,8.20
2018-04-28T09:06:46.944Z,8.20
2018-04-28T09:07:39.572Z,5.60
2018-04-28T09:08:11.207Z,7.30
2018-04-28T09:08:42.821Z,9.00
2018-04-28T09:09:14.454Z,9.50
2018-04-28T09:09:46.070Z,9.30
2018-04-28T09:10:17.774Z,10.90
2018-04-28T09:10:49.417Z,8.20
2018-04-28T09:11:21.069Z,9.90
2018-04-28T09:11:52.698Z,10.40
2018-04-28T09:12:24.334Z,11.10
2018-04-28T09:12:56.056Z,11.90
2018-04-28T09:13:27.637Z,11.80
2018-04-28T09:13:59.266Z,10.90
2018-04-28T09:14:30.897Z,11.60
2018-04-28T09:15:02.578Z,11.20
2018-04-28T09:15:34.218Z,12.20
2018-04-28T09:16:05.850Z,12.80
2018-04-28T09:16:37.516Z,11.60
2018-04-28T09:17:09.149Z,13.00
2018-04-28T09:17:40.782Z,14.00
2018-04-28T09:18:12.401Z,14.00
2018-04-28T09:18:44.025Z,14.00
2018-04-28T09:19:15.645Z,14.20
2018-04-28T09:19:47.308Z,12.80
2018-04-28T09:20:18.938Z,12.50
2018-04-28T09:20:50.574Z,12.40
2018-04-28T09:21:22.194Z,12.10
2018-04-28T09:21:53.828Z,11.90
2018-04-28T09:22:25.465Z,8.90
2018-04-28T09:22:57.091Z,9.60
2018-04-28T09:23:28.720Z,10.00
2018-04-28T09:24:00.368Z,10.80
2018-04-28T09:24:31.992Z,10.00
2018-04-28T09:25:03.626Z,9.70
2018-04-28T09:25:35.289Z,10.10
2018-04-28T09:26:06.915Z,9.80
2018-04-28T09:26:38.576Z,10.40
2018-04-28T09:27:10.249Z,10.40
2018-04-28T09:27:41.882Z,9.30
2018-04-28T09:28:13.521Z,10.60